sensor_id;sensor_type;location;lat;lon;timestamp;P1;durP1;ratioP1;P2;durP2;ratioP2
22754;SDS011;11544;42.020;23.094;2023-02-01T00:01:07;3.63;;;2.00;;
22754;SDS011;11544;42.020;23.094;2023-02-01T00:03:40;2.67;;;1.95;;
22754;SDS011;11544;42.020;23.094;2023-02-01T00:06:10;3.72;;;2.10;;
22754;SDS011;11544;42.020;23.094;2023-02-01T00:08:38;3.88;;;1.90;;
22754;SDS011;11544;42.020;23.094;2023-02-01T00:11:14;3.83;;;1.73;;
22754;SDS011;11544;42.020;23.094;2023-02-01T00:13:41;5.47;;;1.80;;
22754;SDS011;11544;42.020;23.094;2023-02-01T00:16:12;3.80;;;2.13;;
22754;SDS011;11544;42.020;23.094;2023-02-01T00:18:43;3.70;;;1.88;;
22754;SDS011;11544;42.020;23.094;2023-02-01T00:21:11;3.85;;;1.90;;
22754;SDS011;11544;42.020;23.094;2023-02-01T00:23:42;3.17;;;1.98;;
22754;SDS011;11544;42.020;23.094;2023-02-01T00:26:16;3.97;;;2.35;;
22754;SDS011;11544;42.020;23.094;2023-02-01T00:28:45;4.28;;;2.22;;
22754;SDS011;11544;42.020;23.094;2023-02-01T00:31:12;3.15;;;1.67;;
22754;SDS011;11544;42.020;23.094;2023-02-01T00:33:39;2.83;;;1.85;;
22754;SDS011;11544;42.020;23.094;2023-02-01T00:36:07;3.38;;;2.35;;
22754;SDS011;11544;42.020;23.094;2023-02-01T00:38:36;4.28;;;2.17;;
22754;SDS011;11544;42.020;23.094;2023-02-01T00:41:05;3.88;;;2.60;;
22754;SDS011;11544;42.020;23.094;2023-02-01T00:43:41;5.13;;;2.80;;
22754;SDS011;11544;42.020;23.094;2023-02-01T00:46:08;4.32;;;2.80;;
22754;SDS011;11544;42.020;23.094;2023-02-01T00:48:36;4.55;;;2.72;;
22754;SDS011;11544;42.020;23.094;2023-02-01T00:51:05;3.05;;;2.60;;
22754;SDS011;11544;42.020;23.094;2023-02-01T00:53:34;4.18;;;2.67;;
22754;SDS011;11544;42.020;23.094;2023-02-01T00:56:03;4.88;;;2.55;;
22754;SDS011;11544;42.020;23.094;2023-02-01T00:58:32;8.35;;;3.10;;
22754;SDS011;11544;42.020;23.094;2023-02-01T01:03:35;5.78;;;3.03;;
22754;SDS011;11544;42.020;23.094;2023-02-01T01:06:08;9.20;;;3.85;;
22754;SDS011;11544;42.020;23.094;2023-02-01T01:08:38;4.45;;;2.78;;
22754;SDS011;11544;42.020;23.094;2023-02-01T01:11:07;8.43;;;3.50;;
22754;SDS011;11544;42.020;23.094;2023-02-01T01:13:35;4.97;;;2.88;;
22754;SDS011;11544;42.020;23.094;2023-02-01T01:16:03;3.10;;;2.75;;
22754;SDS011;11544;42.020;23.094;2023-02-01T01:18:32;8.55;;;3.08;;
22754;SDS011;11544;42.020;23.094;2023-02-01T01:21:00;8.18;;;3.92;;
22754;SDS011;11544;42.020;23.094;2023-02-01T01:23:27;6.63;;;2.30;;
22754;SDS011;11544;42.020;23.094;2023-02-01T01:25:54;5.00;;;2.40;;
22754;SDS011;11544;42.020;23.094;2023-02-01T01:28:24;4.10;;;2.92;;
22754;SDS011;11544;42.020;23.094;2023-02-01T01:30:51;6.10;;;2.85;;
22754;SDS011;11544;42.020;23.094;2023-02-01T01:33:18;3.30;;;2.80;;
22754;SDS011;11544;42.020;23.094;2023-02-01T01:35:45;7.40;;;2.40;;
22754;SDS011;11544;42.020;23.094;2023-02-01T01:38:13;6.55;;;3.40;;
22754;SDS011;11544;42.020;23.094;2023-02-01T01:40:40;6.95;;;2.92;;
22754;SDS011;11544;42.020;23.094;2023-02-01T01:43:14;3.80;;;2.70;;
22754;SDS011;11544;42.020;23.094;2023-02-01T01:45:43;3.92;;;2.50;;
22754;SDS011;11544;42.020;23.094;2023-02-01T01:48:34;6.40;;;2.88;;
22754;SDS011;11544;42.020;23.094;2023-02-01T01:51:07;3.67;;;2.58;;
22754;SDS011;11544;42.020;23.094;2023-02-01T01:53:45;4.63;;;2.78;;
22754;SDS011;11544;42.020;23.094;2023-02-01T01:56:19;3.58;;;2.22;;
22754;SDS011;11544;42.020;23.094;2023-02-01T01:58:46;4.82;;;2.22;;
22754;SDS011;11544;42.020;23.094;2023-02-01T02:01:13;3.22;;;2.33;;
22754;SDS011;11544;42.020;23.094;2023-02-01T02:03:42;4.05;;;2.30;;
22754;SDS011;11544;42.020;23.094;2023-02-01T02:06:25;3.38;;;2.63;;
22754;SDS011;11544;42.020;23.094;2023-02-01T02:08:59;5.00;;;2.70;;
22754;SDS011;11544;42.020;23.094;2023-02-01T02:11:26;2.55;;;2.03;;
22754;SDS011;11544;42.020;23.094;2023-02-01T02:13:54;4.75;;;2.40;;
22754;SDS011;11544;42.020;23.094;2023-02-01T02:27:44;3.60;;;2.60;;
22754;SDS011;11544;42.020;23.094;2023-02-01T02:33:45;5.97;;;3.08;;
22754;SDS011;11544;42.020;23.094;2023-02-01T02:41:47;3.13;;;2.35;;
22754;SDS011;11544;42.020;23.094;2023-02-01T02:54:15;7.85;;;3.65;;
22754;SDS011;11544;42.020;23.094;2023-02-01T02:56:43;4.80;;;2.50;;
22754;SDS011;11544;42.020;23.094;2023-02-01T02:59:31;4.20;;;2.72;;
22754;SDS011;11544;42.020;23.094;2023-02-01T03:02:19;4.40;;;3.00;;
22754;SDS011;11544;42.020;23.094;2023-02-01T03:05:06;4.25;;;3.05;;
22754;SDS011;11544;42.020;23.094;2023-02-01T03:10:33;4.95;;;2.78;;
22754;SDS011;11544;42.020;23.094;2023-02-01T03:13:11;7.15;;;3.40;;
22754;SDS011;11544;42.020;23.094;2023-02-01T03:15:55;5.90;;;3.42;;
22754;SDS011;11544;42.020;23.094;2023-02-01T03:21:10;9.98;;;3.33;;
22754;SDS011;11544;42.020;23.094;2023-02-01T03:23:42;7.10;;;2.55;;
22754;SDS011;11544;42.020;23.094;2023-02-01T03:26:13;3.70;;;2.38;;
22754;SDS011;11544;42.020;23.094;2023-02-01T03:28:49;3.83;;;2.60;;
22754;SDS011;11544;42.020;23.094;2023-02-01T03:31:22;5.30;;;3.55;;
22754;SDS011;11544;42.020;23.094;2023-02-01T03:33:50;13.15;;;6.82;;
22754;SDS011;11544;42.020;23.094;2023-02-01T03:36:20;3.30;;;2.38;;
22754;SDS011;11544;42.020;23.094;2023-02-01T03:42:21;3.00;;;1.90;;
22754;SDS011;11544;42.020;23.094;2023-02-01T03:45:04;4.05;;;2.63;;
22754;SDS011;11544;42.020;23.094;2023-02-01T03:47:37;3.53;;;2.30;;
22754;SDS011;11544;42.020;23.094;2023-02-01T03:50:09;4.15;;;2.70;;
22754;SDS011;11544;42.020;23.094;2023-02-01T03:55:11;4.85;;;2.65;;
22754;SDS011;11544;42.020;23.094;2023-02-01T03:57:41;3.33;;;2.40;;
22754;SDS011;11544;42.020;23.094;2023-02-01T04:00:17;3.92;;;2.47;;
22754;SDS011;11544;42.020;23.094;2023-02-01T04:02:44;5.75;;;2.58;;
22754;SDS011;11544;42.020;23.094;2023-02-01T04:05:14;9.55;;;3.40;;
22754;SDS011;11544;42.020;23.094;2023-02-01T04:07:48;4.90;;;3.05;;
22754;SDS011;11544;42.020;23.094;2023-02-01T04:10:15;4.72;;;2.80;;
22754;SDS011;11544;42.020;23.094;2023-02-01T04:12:51;3.80;;;2.42;;
22754;SDS011;11544;42.020;23.094;2023-02-01T04:15:22;3.83;;;2.53;;
22754;SDS011;11544;42.020;23.094;2023-02-01T04:17:49;5.45;;;2.63;;
22754;SDS011;11544;42.020;23.094;2023-02-01T04:20:16;6.82;;;2.80;;
22754;SDS011;11544;42.020;23.094;2023-02-01T04:22:43;5.00;;;2.45;;
22754;SDS011;11544;42.020;23.094;2023-02-01T04:25:10;4.15;;;2.55;;
22754;SDS011;11544;42.020;23.094;2023-02-01T04:27:37;3.92;;;2.35;;
22754;SDS011;11544;42.020;23.094;2023-02-01T04:30:04;10.10;;;3.72;;
22754;SDS011;11544;42.020;23.094;2023-02-01T04:32:36;8.52;;;3.97;;
22754;SDS011;11544;42.020;23.094;2023-02-01T04:35:03;6.38;;;4.43;;
22754;SDS011;11544;42.020;23.094;2023-02-01T04:37:31;5.72;;;3.53;;
22754;SDS011;11544;42.020;23.094;2023-02-01T04:39:58;7.88;;;4.47;;
22754;SDS011;11544;42.020;23.094;2023-02-01T04:42:25;6.82;;;4.45;;
22754;SDS011;11544;42.020;23.094;2023-02-01T04:44:52;7.43;;;4.60;;
22754;SDS011;11544;42.020;23.094;2023-02-01T04:47:19;7.18;;;3.53;;
22754;SDS011;11544;42.020;23.094;2023-02-01T04:49:46;6.07;;;3.70;;
22754;SDS011;11544;42.020;23.094;2023-02-01T04:52:13;10.98;;;5.40;;
22754;SDS011;11544;42.020;23.094;2023-02-01T04:54:41;8.68;;;3.70;;
22754;SDS011;11544;42.020;23.094;2023-02-01T04:57:08;5.80;;;3.97;;
22754;SDS011;11544;42.020;23.094;2023-02-01T04:59:35;5.78;;;3.42;;
22754;SDS011;11544;42.020;23.094;2023-02-01T05:02:02;7.00;;;3.88;;
22754;SDS011;11544;42.020;23.094;2023-02-01T05:04:29;8.13;;;3.70;;
22754;SDS011;11544;42.020;23.094;2023-02-01T05:06:55;8.05;;;3.92;;
22754;SDS011;11544;42.020;23.094;2023-02-01T05:09:22;13.93;;;4.55;;
22754;SDS011;11544;42.020;23.094;2023-02-01T05:11:49;10.07;;;5.10;;
22754;SDS011;11544;42.020;23.094;2023-02-01T05:14:35;11.25;;;3.67;;
22754;SDS011;11544;42.020;23.094;2023-02-01T05:17:02;5.00;;;3.08;;
22754;SDS011;11544;42.020;23.094;2023-02-01T05:19:32;3.17;;;2.42;;
22754;SDS011;11544;42.020;23.094;2023-02-01T05:22:12;5.43;;;2.35;;
22754;SDS011;11544;42.020;23.094;2023-02-01T05:24:41;5.93;;;2.45;;
22754;SDS011;11544;42.020;23.094;2023-02-01T05:27:08;5.30;;;2.60;;
22754;SDS011;11544;42.020;23.094;2023-02-01T05:29:34;2.53;;;1.80;;
22754;SDS011;11544;42.020;23.094;2023-02-01T05:32:01;6.53;;;2.15;;
22754;SDS011;11544;42.020;23.094;2023-02-01T05:34:47;6.00;;;3.13;;
22754;SDS011;11544;42.020;23.094;2023-02-01T05:37:13;6.57;;;3.08;;
22754;SDS011;11544;42.020;23.094;2023-02-01T05:39:40;8.40;;;2.67;;
22754;SDS011;11544;42.020;23.094;2023-02-01T05:42:07;4.97;;;2.22;;
22754;SDS011;11544;42.020;23.094;2023-02-01T05:44:35;6.05;;;2.33;;
22754;SDS011;11544;42.020;23.094;2023-02-01T05:47:02;3.88;;;1.95;;
22754;SDS011;11544;42.020;23.094;2023-02-01T05:49:30;6.07;;;2.33;;
22754;SDS011;11544;42.020;23.094;2023-02-01T05:51:56;4.65;;;2.10;;
22754;SDS011;11544;42.020;23.094;2023-02-01T05:54:25;4.90;;;2.20;;
22754;SDS011;11544;42.020;23.094;2023-02-01T05:56:54;2.63;;;1.65;;
22754;SDS011;11544;42.020;23.094;2023-02-01T05:59:21;6.90;;;3.00;;
22754;SDS011;11544;42.020;23.094;2023-02-01T06:01:48;11.05;;;5.35;;
22754;SDS011;11544;42.020;23.094;2023-02-01T06:04:15;9.23;;;4.10;;
22754;SDS011;11544;42.020;23.094;2023-02-01T06:06:42;5.90;;;3.10;;
22754;SDS011;11544;42.020;23.094;2023-02-01T06:09:09;12.25;;;3.55;;
22754;SDS011;11544;42.020;23.094;2023-02-01T06:11:36;12.07;;;3.03;;
22754;SDS011;11544;42.020;23.094;2023-02-01T06:14:03;5.57;;;3.17;;
22754;SDS011;11544;42.020;23.094;2023-02-01T06:16:30;9.50;;;3.00;;
22754;SDS011;11544;42.020;23.094;2023-02-01T06:18:57;6.15;;;2.83;;
22754;SDS011;11544;42.020;23.094;2023-02-01T06:21:24;4.00;;;2.72;;
22754;SDS011;11544;42.020;23.094;2023-02-01T06:23:55;7.28;;;2.25;;
22754;SDS011;11544;42.020;23.094;2023-02-01T06:26:24;7.13;;;2.97;;
22754;SDS011;11544;42.020;23.094;2023-02-01T06:28:51;6.45;;;3.35;;
22754;SDS011;11544;42.020;23.094;2023-02-01T06:31:20;8.73;;;3.67;;
22754;SDS011;11544;42.020;23.094;2023-02-01T06:33:47;7.38;;;3.53;;
22754;SDS011;11544;42.020;23.094;2023-02-01T06:36:15;6.72;;;3.72;;
22754;SDS011;11544;42.020;23.094;2023-02-01T06:38:42;9.68;;;3.47;;
22754;SDS011;11544;42.020;23.094;2023-02-01T06:41:10;7.05;;;3.38;;
22754;SDS011;11544;42.020;23.094;2023-02-01T06:43:37;12.85;;;3.45;;
22754;SDS011;11544;42.020;23.094;2023-02-01T06:46:11;8.80;;;3.05;;
22754;SDS011;11544;42.020;23.094;2023-02-01T06:48:39;10.90;;;2.83;;
22754;SDS011;11544;42.020;23.094;2023-02-01T06:51:15;12.98;;;2.95;;
22754;SDS011;11544;42.020;23.094;2023-02-01T06:53:46;6.15;;;2.72;;
22754;SDS011;11544;42.020;23.094;2023-02-01T06:56:13;10.88;;;4.10;;
22754;SDS011;11544;42.020;23.094;2023-02-01T06:58:40;10.52;;;3.60;;
22754;SDS011;11544;42.020;23.094;2023-02-01T07:01:07;11.00;;;4.03;;
22754;SDS011;11544;42.020;23.094;2023-02-01T07:03:35;9.73;;;4.03;;
22754;SDS011;11544;42.020;23.094;2023-02-01T07:06:03;17.17;;;3.13;;
22754;SDS011;11544;42.020;23.094;2023-02-01T07:08:31;11.77;;;3.67;;
22754;SDS011;11544;42.020;23.094;2023-02-01T07:11:03;7.47;;;2.78;;
22754;SDS011;11544;42.020;23.094;2023-02-01T07:13:31;10.98;;;3.33;;
22754;SDS011;11544;42.020;23.094;2023-02-01T07:15:59;8.38;;;2.83;;
22754;SDS011;11544;42.020;23.094;2023-02-01T07:18:31;10.57;;;3.60;;
22754;SDS011;11544;42.020;23.094;2023-02-01T07:20:58;11.35;;;4.25;;
22754;SDS011;11544;42.020;23.094;2023-02-01T07:23:26;8.02;;;4.30;;
22754;SDS011;11544;42.020;23.094;2023-02-01T07:25:57;7.97;;;4.05;;
22754;SDS011;11544;42.020;23.094;2023-02-01T07:28:25;8.25;;;3.92;;
22754;SDS011;11544;42.020;23.094;2023-02-01T07:30:52;5.60;;;2.83;;
22754;SDS011;11544;42.020;23.094;2023-02-01T07:33:20;13.68;;;3.70;;
22754;SDS011;11544;42.020;23.094;2023-02-01T07:35:50;16.40;;;3.85;;
22754;SDS011;11544;42.020;23.094;2023-02-01T07:38:17;6.97;;;2.80;;
22754;SDS011;11544;42.020;23.094;2023-02-01T07:40:45;6.63;;;3.05;;
22754;SDS011;11544;42.020;23.094;2023-02-01T07:43:12;7.28;;;2.50;;
22754;SDS011;11544;42.020;23.094;2023-02-01T07:45:41;12.52;;;3.60;;
22754;SDS011;11544;42.020;23.094;2023-02-01T07:48:15;3.88;;;2.30;;
22754;SDS011;11544;42.020;23.094;2023-02-01T07:50:42;4.03;;;2.25;;
22754;SDS011;11544;42.020;23.094;2023-02-01T07:53:09;5.40;;;2.55;;
22754;SDS011;11544;42.020;23.094;2023-02-01T07:55:39;5.97;;;2.90;;
22754;SDS011;11544;42.020;23.094;2023-02-01T07:58:14;7.63;;;3.15;;
22754;SDS011;11544;42.020;23.094;2023-02-01T08:00:44;3.83;;;1.75;;
22754;SDS011;11544;42.020;23.094;2023-02-01T08:03:33;6.45;;;2.15;;
22754;SDS011;11544;42.020;23.094;2023-02-01T08:06:01;9.02;;;2.65;;
22754;SDS011;11544;42.020;23.094;2023-02-01T08:08:29;8.13;;;3.10;;
22754;SDS011;11544;42.020;23.094;2023-02-01T08:11:03;10.38;;;3.28;;
22754;SDS011;11544;42.020;23.094;2023-02-01T08:13:33;6.03;;;3.20;;
22754;SDS011;11544;42.020;23.094;2023-02-01T08:16:02;11.00;;;5.45;;
22754;SDS011;11544;42.020;23.094;2023-02-01T08:18:31;7.15;;;3.72;;
22754;SDS011;11544;42.020;23.094;2023-02-01T08:21:03;15.05;;;6.18;;
22754;SDS011;11544;42.020;23.094;2023-02-01T08:23:31;12.52;;;4.70;;
22754;SDS011;11544;42.020;23.094;2023-02-01T08:26:11;17.35;;;5.90;;
22754;SDS011;11544;42.020;23.094;2023-02-01T08:28:44;6.25;;;2.72;;
22754;SDS011;11544;42.020;23.094;2023-02-01T08:31:20;9.48;;;4.05;;
22754;SDS011;11544;42.020;23.094;2023-02-01T08:33:52;9.27;;;3.45;;
22754;SDS011;11544;42.020;23.094;2023-02-01T08:36:23;9.40;;;4.53;;
22754;SDS011;11544;42.020;23.094;2023-02-01T08:38:52;10.57;;;4.72;;
22754;SDS011;11544;42.020;23.094;2023-02-01T08:41:21;11.30;;;4.32;;
22754;SDS011;11544;42.020;23.094;2023-02-01T08:43:50;13.05;;;3.85;;
22754;SDS011;11544;42.020;23.094;2023-02-01T08:46:18;12.82;;;4.38;;
22754;SDS011;11544;42.020;23.094;2023-02-01T08:49:00;9.02;;;3.13;;
22754;SDS011;11544;42.020;23.094;2023-02-01T08:52:13;10.50;;;3.03;;
22754;SDS011;11544;42.020;23.094;2023-02-01T08:54:41;7.78;;;2.95;;
22754;SDS011;11544;42.020;23.094;2023-02-01T08:57:10;6.80;;;3.15;;
22754;SDS011;11544;42.020;23.094;2023-02-01T08:59:40;12.30;;;4.07;;
22754;SDS011;11544;42.020;23.094;2023-02-01T09:02:08;18.77;;;5.28;;
22754;SDS011;11544;42.020;23.094;2023-02-01T09:04:40;15.60;;;3.97;;
22754;SDS011;11544;42.020;23.094;2023-02-01T09:07:10;14.05;;;5.18;;
22754;SDS011;11544;42.020;23.094;2023-02-01T09:09:39;17.38;;;6.15;;
22754;SDS011;11544;42.020;23.094;2023-02-01T09:12:06;14.00;;;4.13;;
22754;SDS011;11544;42.020;23.094;2023-02-01T09:14:33;15.80;;;3.78;;
22754;SDS011;11544;42.020;23.094;2023-02-01T09:17:00;10.30;;;4.32;;
22754;SDS011;11544;42.020;23.094;2023-02-01T09:19:27;28.38;;;7.68;;
22754;SDS011;11544;42.020;23.094;2023-02-01T09:21:54;24.02;;;6.78;;
22754;SDS011;11544;42.020;23.094;2023-02-01T09:24:21;26.73;;;7.20;;
22754;SDS011;11544;42.020;23.094;2023-02-01T09:26:52;22.55;;;7.85;;
22754;SDS011;11544;42.020;23.094;2023-02-01T09:29:19;15.25;;;6.88;;
22754;SDS011;11544;42.020;23.094;2023-02-01T09:31:46;17.17;;;6.07;;
22754;SDS011;11544;42.020;23.094;2023-02-01T09:34:37;23.40;;;9.63;;
22754;SDS011;11544;42.020;23.094;2023-02-01T09:37:08;6.90;;;2.55;;
22754;SDS011;11544;42.020;23.094;2023-02-01T09:39:35;30.38;;;10.00;;
22754;SDS011;11544;42.020;23.094;2023-02-01T09:47:34;25.00;;;9.05;;
22754;SDS011;11544;42.020;23.094;2023-02-01T09:50:09;17.08;;;5.95;;
22754;SDS011;11544;42.020;23.094;2023-02-01T09:53:10;15.65;;;4.50;;
22754;SDS011;11544;42.020;23.094;2023-02-01T09:56:00;9.98;;;3.92;;
22754;SDS011;11544;42.020;23.094;2023-02-01T10:01:00;6.05;;;2.00;;
22754;SDS011;11544;42.020;23.094;2023-02-01T10:03:32;9.73;;;2.50;;
22754;SDS011;11544;42.020;23.094;2023-02-01T10:23:10;7.95;;;2.95;;
22754;SDS011;11544;42.020;23.094;2023-02-01T10:26:12;5.45;;;1.70;;
22754;SDS011;11544;42.020;23.094;2023-02-01T10:28:43;8.15;;;3.08;;
22754;SDS011;11544;42.020;23.094;2023-02-01T10:31:14;7.20;;;2.13;;
22754;SDS011;11544;42.020;23.094;2023-02-01T10:33:44;3.15;;;1.45;;
22754;SDS011;11544;42.020;23.094;2023-02-01T10:36:28;4.40;;;2.38;;
22754;SDS011;11544;42.020;23.094;2023-02-01T10:39:03;6.93;;;1.92;;
22754;SDS011;11544;42.020;23.094;2023-02-01T10:41:33;3.72;;;1.80;;
22754;SDS011;11544;42.020;23.094;2023-02-01T10:44:03;5.28;;;1.80;;
22754;SDS011;11544;42.020;23.094;2023-02-01T10:46:36;4.05;;;1.60;;
22754;SDS011;11544;42.020;23.094;2023-02-01T10:49:04;3.88;;;2.38;;
22754;SDS011;11544;42.020;23.094;2023-02-01T10:54:19;5.90;;;3.05;;
22754;SDS011;11544;42.020;23.094;2023-02-01T10:56:49;11.80;;;3.00;;
22754;SDS011;11544;42.020;23.094;2023-02-01T10:59:20;3.42;;;1.35;;
22754;SDS011;11544;42.020;23.094;2023-02-01T11:01:57;3.70;;;2.08;;
22754;SDS011;11544;42.020;23.094;2023-02-01T11:04:35;11.00;;;3.53;;
22754;SDS011;11544;42.020;23.094;2023-02-01T11:09:56;12.80;;;5.38;;
22754;SDS011;11544;42.020;23.094;2023-02-01T11:12:30;6.65;;;3.67;;
22754;SDS011;11544;42.020;23.094;2023-02-01T11:15:01;6.88;;;3.80;;
22754;SDS011;11544;42.020;23.094;2023-02-01T11:17:51;4.18;;;2.50;;
22754;SDS011;11544;42.020;23.094;2023-02-01T11:20:35;3.67;;;2.53;;
22754;SDS011;11544;42.020;23.094;2023-02-01T11:23:16;9.13;;;3.58;;
22754;SDS011;11544;42.020;23.094;2023-02-01T11:25:56;5.75;;;1.77;;
22754;SDS011;11544;42.020;23.094;2023-02-01T11:28:26;3.75;;;1.92;;
22754;SDS011;11544;42.020;23.094;2023-02-01T11:30:59;3.17;;;1.80;;
22754;SDS011;11544;42.020;23.094;2023-02-01T11:33:32;6.18;;;2.97;;
22754;SDS011;11544;42.020;23.094;2023-02-01T11:44:38;2.33;;;1.40;;
22754;SDS011;11544;42.020;23.094;2023-02-01T11:47:27;1.58;;;1.10;;
22754;SDS011;11544;42.020;23.094;2023-02-01T11:50:15;3.53;;;1.88;;
22754;SDS011;11544;42.020;23.094;2023-02-01T11:52:57;3.05;;;1.52;;
22754;SDS011;11544;42.020;23.094;2023-02-01T12:04:00;7.40;;;2.22;;
22754;SDS011;11544;42.020;23.094;2023-02-01T12:23:10;4.25;;;1.40;;
22754;SDS011;11544;42.020;23.094;2023-02-01T12:28:42;5.82;;;1.90;;
22754;SDS011;11544;42.020;23.094;2023-02-01T12:39:49;16.55;;;6.18;;
22754;SDS011;11544;42.020;23.094;2023-02-01T12:42:46;8.93;;;4.57;;
22754;SDS011;11544;42.020;23.094;2023-02-01T12:48:32;8.38;;;4.57;;
22754;SDS011;11544;42.020;23.094;2023-02-01T12:51:14;7.55;;;3.45;;
22754;SDS011;11544;42.020;23.094;2023-02-01T12:56:46;12.30;;;5.72;;
22754;SDS011;11544;42.020;23.094;2023-02-01T12:59:38;5.25;;;2.70;;
22754;SDS011;11544;42.020;23.094;2023-02-01T13:05:18;5.78;;;1.92;;
22754;SDS011;11544;42.020;23.094;2023-02-01T13:07:59;6.53;;;1.77;;
22754;SDS011;11544;42.020;23.094;2023-02-01T13:10:45;5.60;;;2.25;;
22754;SDS011;11544;42.020;23.094;2023-02-01T13:13:28;5.10;;;1.50;;
22754;SDS011;11544;42.020;23.094;2023-02-01T13:16:17;1.50;;;1.08;;
22754;SDS011;11544;42.020;23.094;2023-02-01T13:18:54;4.18;;;2.10;;
22754;SDS011;11544;42.020;23.094;2023-02-01T13:21:30;5.97;;;2.15;;
22754;SDS011;11544;42.020;23.094;2023-02-01T13:24:01;6.25;;;2.67;;
22754;SDS011;11544;42.020;23.094;2023-02-01T13:26:30;4.68;;;2.35;;
22754;SDS011;11544;42.020;23.094;2023-02-01T13:29:02;2.10;;;1.00;;
22754;SDS011;11544;42.020;23.094;2023-02-01T13:37:35;3.42;;;1.42;;
22754;SDS011;11544;42.020;23.094;2023-02-01T13:45:19;7.70;;;2.22;;
22754;SDS011;11544;42.020;23.094;2023-02-01T13:47:51;4.85;;;2.55;;
22754;SDS011;11544;42.020;23.094;2023-02-01T13:50:27;5.78;;;2.55;;
22754;SDS011;11544;42.020;23.094;2023-02-01T13:53:02;7.75;;;1.88;;
22754;SDS011;11544;42.020;23.094;2023-02-01T13:55:38;4.63;;;2.53;;
22754;SDS011;11544;42.020;23.094;2023-02-01T14:00:35;5.18;;;2.10;;
22754;SDS011;11544;42.020;23.094;2023-02-01T14:03:11;6.22;;;2.22;;
22754;SDS011;11544;42.020;23.094;2023-02-01T14:08:24;7.35;;;3.58;;
22754;SDS011;11544;42.020;23.094;2023-02-01T14:11:04;6.13;;;2.33;;
22754;SDS011;11544;42.020;23.094;2023-02-01T14:34:31;6.70;;;2.83;;
22754;SDS011;11544;42.020;23.094;2023-02-01T14:37:03;6.55;;;3.00;;
22754;SDS011;11544;42.020;23.094;2023-02-01T14:45:46;10.13;;;2.75;;
22754;SDS011;11544;42.020;23.094;2023-02-01T14:58:14;8.95;;;4.35;;
22754;SDS011;11544;42.020;23.094;2023-02-01T15:00:53;11.52;;;5.15;;
22754;SDS011;11544;42.020;23.094;2023-02-01T15:03:43;9.32;;;3.95;;
22754;SDS011;11544;42.020;23.094;2023-02-01T15:09:50;8.07;;;4.30;;
22754;SDS011;11544;42.020;23.094;2023-02-01T15:12:24;12.48;;;4.50;;
22754;SDS011;11544;42.020;23.094;2023-02-01T15:15:09;14.55;;;5.70;;
22754;SDS011;11544;42.020;23.094;2023-02-01T15:17:49;12.95;;;4.65;;
22754;SDS011;11544;42.020;23.094;2023-02-01T15:20:27;12.25;;;5.47;;
22754;SDS011;11544;42.020;23.094;2023-02-01T15:25:29;20.48;;;7.45;;
22754;SDS011;11544;42.020;23.094;2023-02-01T15:27:58;20.45;;;7.57;;
22754;SDS011;11544;42.020;23.094;2023-02-01T15:30:25;16.48;;;6.95;;
22754;SDS011;11544;42.020;23.094;2023-02-01T15:42:12;43.08;;;17.80;;
22754;SDS011;11544;42.020;23.094;2023-02-01T15:44:52;40.15;;;15.85;;
22754;SDS011;11544;42.020;23.094;2023-02-01T15:47:23;70.88;;;22.60;;
22754;SDS011;11544;42.020;23.094;2023-02-01T15:49:53;66.70;;;23.38;;
22754;SDS011;11544;42.020;23.094;2023-02-01T15:55:44;18.55;;;7.85;;
22754;SDS011;11544;42.020;23.094;2023-02-01T15:58:20;23.92;;;10.52;;
22754;SDS011;11544;42.020;23.094;2023-02-01T16:00:53;22.45;;;10.30;;
22754;SDS011;11544;42.020;23.094;2023-02-01T16:06:26;18.02;;;8.65;;
22754;SDS011;11544;42.020;23.094;2023-02-01T16:11:31;22.23;;;9.82;;
22754;SDS011;11544;42.020;23.094;2023-02-01T16:14:06;18.05;;;9.02;;
22754;SDS011;11544;42.020;23.094;2023-02-01T16:17:23;19.17;;;9.20;;
22754;SDS011;11544;42.020;23.094;2023-02-01T16:19:50;20.90;;;11.38;;
22754;SDS011;11544;42.020;23.094;2023-02-01T16:22:18;20.23;;;11.40;;
22754;SDS011;11544;42.020;23.094;2023-02-01T16:24:45;20.60;;;11.20;;
22754;SDS011;11544;42.020;23.094;2023-02-01T16:27:12;14.80;;;6.35;;
22754;SDS011;11544;42.020;23.094;2023-02-01T16:29:39;21.27;;;8.77;;
22754;SDS011;11544;42.020;23.094;2023-02-01T16:32:13;14.60;;;6.70;;
22754;SDS011;11544;42.020;23.094;2023-02-01T16:34:45;13.48;;;5.97;;
22754;SDS011;11544;42.020;23.094;2023-02-01T16:37:14;14.70;;;5.63;;
22754;SDS011;11544;42.020;23.094;2023-02-01T16:39:45;16.80;;;5.80;;
22754;SDS011;11544;42.020;23.094;2023-02-01T16:42:13;14.70;;;6.22;;
22754;SDS011;11544;42.020;23.094;2023-02-01T16:44:41;13.82;;;5.25;;
22754;SDS011;11544;42.020;23.094;2023-02-01T16:47:14;12.68;;;6.15;;
22754;SDS011;11544;42.020;23.094;2023-02-01T16:49:43;20.30;;;6.20;;
22754;SDS011;11544;42.020;23.094;2023-02-01T16:52:17;16.20;;;6.38;;
22754;SDS011;11544;42.020;23.094;2023-02-01T16:54:47;13.63;;;5.93;;
22754;SDS011;11544;42.020;23.094;2023-02-01T16:57:15;12.88;;;5.80;;
22754;SDS011;11544;42.020;23.094;2023-02-01T16:59:44;11.25;;;5.65;;
22754;SDS011;11544;42.020;23.094;2023-02-01T17:02:16;16.45;;;7.28;;
22754;SDS011;11544;42.020;23.094;2023-02-01T17:04:46;12.85;;;6.35;;
22754;SDS011;11544;42.020;23.094;2023-02-01T17:07:15;14.93;;;5.15;;
22754;SDS011;11544;42.020;23.094;2023-02-01T17:09:44;10.63;;;4.95;;
22754;SDS011;11544;42.020;23.094;2023-02-01T17:12:21;10.48;;;4.45;;
22754;SDS011;11544;42.020;23.094;2023-02-01T17:14:50;7.25;;;4.15;;
22754;SDS011;11544;42.020;23.094;2023-02-01T17:17:18;8.65;;;4.03;;
22754;SDS011;11544;42.020;23.094;2023-02-01T17:20:02;5.15;;;2.83;;
22754;SDS011;11544;42.020;23.094;2023-02-01T17:22:29;10.77;;;4.22;;
22754;SDS011;11544;42.020;23.094;2023-02-01T17:24:56;12.25;;;4.93;;
22754;SDS011;11544;42.020;23.094;2023-02-01T17:27:23;11.93;;;4.93;;
22754;SDS011;11544;42.020;23.094;2023-02-01T17:30:06;12.35;;;4.35;;
22754;SDS011;11544;42.020;23.094;2023-02-01T17:32:35;4.70;;;2.20;;
22754;SDS011;11544;42.020;23.094;2023-02-01T17:35:02;7.63;;;3.97;;
22754;SDS011;11544;42.020;23.094;2023-02-01T17:37:31;10.68;;;4.00;;
22754;SDS011;11544;42.020;23.094;2023-02-01T17:40:04;7.07;;;3.10;;
22754;SDS011;11544;42.020;23.094;2023-02-01T17:42:31;6.95;;;3.50;;
22754;SDS011;11544;42.020;23.094;2023-02-01T17:47:53;7.30;;;3.53;;
22754;SDS011;11544;42.020;23.094;2023-02-01T17:50:19;7.85;;;3.10;;
22754;SDS011;11544;42.020;23.094;2023-02-01T17:52:47;8.23;;;3.65;;
22754;SDS011;11544;42.020;23.094;2023-02-01T17:55:18;8.50;;;3.75;;
22754;SDS011;11544;42.020;23.094;2023-02-01T17:57:48;10.52;;;3.80;;
22754;SDS011;11544;42.020;23.094;2023-02-01T18:00:17;6.38;;;3.33;;
22754;SDS011;11544;42.020;23.094;2023-02-01T18:02:44;18.20;;;7.97;;
22754;SDS011;11544;42.020;23.094;2023-02-01T18:07:41;5.95;;;3.38;;
22754;SDS011;11544;42.020;23.094;2023-02-01T18:10:08;12.68;;;6.10;;
22754;SDS011;11544;42.020;23.094;2023-02-01T18:12:37;12.25;;;5.45;;
22754;SDS011;11544;42.020;23.094;2023-02-01T18:15:23;16.88;;;8.07;;
22754;SDS011;11544;42.020;23.094;2023-02-01T18:17:51;18.67;;;7.10;;
22754;SDS011;11544;42.020;23.094;2023-02-01T18:20:27;20.88;;;9.27;;
22754;SDS011;11544;42.020;23.094;2023-02-01T18:22:54;14.80;;;5.53;;
22754;SDS011;11544;42.020;23.094;2023-02-01T18:25:30;13.32;;;6.55;;
22754;SDS011;11544;42.020;23.094;2023-02-01T18:28:03;11.75;;;5.18;;
22754;SDS011;11544;42.020;23.094;2023-02-01T18:30:31;10.55;;;5.35;;